Avondale, Arizona
Current Conditions -  °F | °C
As of 7:47 AM on Monday 24 Nov 2014 (Local Time) from KGYR Reporting Station
Few Clouds Few Clouds  
Wind Chill:   Ceiling: Unl
Heat Index:   Visibility: 10mi
Dew Point: -10°   Wind: 5mph
Humidity: 31%   Direction: NA
Pressure: 30.22"   Gusts: NA
Location:  33.44°N, 112.34°W
Report Text: KGYR 241447Z VRB04KT 10SM FEW005 FEW200 06/M10 A3022 RMK FU FEW005
Loading
Personal Weather Stations






























Interactive Weather Map New forecast layout! Learn more

10-Day Weather Forecast

Advertisements
Track Severe Weather on mobile